LOWG/GRZ METAR and TAF weather

Enter ICAO airport designator
Station Type Date Time Source
LOWG METAR 2021/10/20 06:50 UTC NOAA

LOWG 200650Z VRB02KT 0300 R16/0325N R34/0450N FG VV001 06/06 Q1022 BECMG 1500 BCFG BKN003 BECMG FM0800 9999 SCT003


Station Type Date Time Source
LOWG Decoded METAR 2021/10/20 06:50 UTC NOAA

Graz-Thalerhof-Flughafen, Austria (LOWG) 47-00N 015-26E 347M
Oct 20, 2021 - 02:50 AM EDT / 2021.10.20 0650 UTC
Wind: Variable at 2 MPH (2 KT):0
Visibility: less than 1 mile:0
Sky conditions: obscured
Weather: fog
Temperature: 42 F (6 C)
Dew Point: 42 F (6 C)
Relative Humidity: 100%
Pressure (altimeter): 30.18 in. Hg (1022 hPa)
ob: LOWG 200650Z VRB02KT 0300 R16/0325N R34/0450N FG VV001 06/06 Q1022 BECMG 1500 BCFG BKN003 BECMG FM0800 9999 SCT003
cycle: 7

Station Type Date Time Source
LOWG TAF 2021/10/20 06:21 UTC NOAA

TAF TAF COR LOWG 200515Z 2006/2106 15006KT 0100 FG VV001 TX19/2014Z TN06/2006Z
TEMPO 2006/2008 3000 BKN003
BECMG 2006/2008 9999 FEW050 PROB40
TEMPO 2100/2106 0300 FG

Example: see airport list